sensor_id;sensor_type;location;lat;lon;timestamp;P1;durP1;ratioP1;P2;durP2;ratioP2
3891;SDS011;1961;48.194;16.370;2023-03-03T00:00:32;67.05;;;23.48;;
3891;SDS011;1961;48.194;16.370;2023-03-03T00:02:58;65.60;;;22.58;;
3891;SDS011;1961;48.194;16.370;2023-03-03T00:05:26;67.95;;;22.55;;
3891;SDS011;1961;48.194;16.370;2023-03-03T00:07:52;67.20;;;22.75;;
3891;SDS011;1961;48.194;16.370;2023-03-03T00:10:18;69.78;;;23.42;;
3891;SDS011;1961;48.194;16.370;2023-03-03T00:12:48;76.30;;;23.60;;
3891;SDS011;1961;48.194;16.370;2023-03-03T00:15:22;73.03;;;24.13;;
3891;SDS011;1961;48.194;16.370;2023-03-03T00:17:48;65.65;;;22.38;;
3891;SDS011;1961;48.194;16.370;2023-03-03T00:23:08;68.50;;;20.92;;
3891;SDS011;1961;48.194;16.370;2023-03-03T00:25:38;66.65;;;22.30;;
3891;SDS011;1961;48.194;16.370;2023-03-03T00:28:25;61.35;;;20.17;;
3891;SDS011;1961;48.194;16.370;2023-03-03T00:30:52;67.45;;;20.23;;
3891;SDS011;1961;48.194;16.370;2023-03-03T00:33:26;68.82;;;21.85;;
3891;SDS011;1961;48.194;16.370;2023-03-03T00:35:58;67.78;;;22.92;;
3891;SDS011;1961;48.194;16.370;2023-03-03T00:38:25;66.75;;;21.40;;
3891;SDS011;1961;48.194;16.370;2023-03-03T00:40:52;66.25;;;21.65;;
3891;SDS011;1961;48.194;16.370;2023-03-03T00:45:48;70.53;;;20.58;;
3891;SDS011;1961;48.194;16.370;2023-03-03T00:50:42;63.28;;;19.52;;
3891;SDS011;1961;48.194;16.370;2023-03-03T00:53:18;68.65;;;21.63;;
3891;SDS011;1961;48.194;16.370;2023-03-03T00:55:45;67.72;;;22.58;;
3891;SDS011;1961;48.194;16.370;2023-03-03T00:58:12;64.45;;;20.85;;
3891;SDS011;1961;48.194;16.370;2023-03-03T01:00:38;70.82;;;21.98;;
3891;SDS011;1961;48.194;16.370;2023-03-03T01:03:06;63.70;;;21.10;;
3891;SDS011;1961;48.194;16.370;2023-03-03T01:05:33;66.03;;;22.17;;
3891;SDS011;1961;48.194;16.370;2023-03-03T01:07:59;77.28;;;22.33;;
3891;SDS011;1961;48.194;16.370;2023-03-03T01:10:26;65.05;;;21.30;;
3891;SDS011;1961;48.194;16.370;2023-03-03T01:12:53;62.33;;;19.85;;
3891;SDS011;1961;48.194;16.370;2023-03-03T01:15:19;68.60;;;22.13;;
3891;SDS011;1961;48.194;16.370;2023-03-03T01:17:46;63.90;;;20.55;;
3891;SDS011;1961;48.194;16.370;2023-03-03T01:20:13;67.32;;;19.98;;
3891;SDS011;1961;48.194;16.370;2023-03-03T01:22:40;65.88;;;21.13;;
3891;SDS011;1961;48.194;16.370;2023-03-03T01:25:07;63.58;;;20.50;;
3891;SDS011;1961;48.194;16.370;2023-03-03T01:27:34;66.25;;;20.83;;
3891;SDS011;1961;48.194;16.370;2023-03-03T01:30:00;65.28;;;19.23;;
3891;SDS011;1961;48.194;16.370;2023-03-03T01:32:26;62.97;;;21.70;;
3891;SDS011;1961;48.194;16.370;2023-03-03T01:34:53;60.28;;;20.25;;
3891;SDS011;1961;48.194;16.370;2023-03-03T01:37:19;61.80;;;20.15;;
3891;SDS011;1961;48.194;16.370;2023-03-03T01:39:52;62.95;;;17.70;;
3891;SDS011;1961;48.194;16.370;2023-03-03T01:42:19;59.63;;;18.83;;
3891;SDS011;1961;48.194;16.370;2023-03-03T01:44:45;64.97;;;19.27;;
3891;SDS011;1961;48.194;16.370;2023-03-03T01:47:14;60.83;;;18.80;;
3891;SDS011;1961;48.194;16.370;2023-03-03T01:49:48;63.40;;;19.52;;
3891;SDS011;1961;48.194;16.370;2023-03-03T01:52:21;58.90;;;18.95;;
3891;SDS011;1961;48.194;16.370;2023-03-03T01:54:52;68.22;;;20.05;;
3891;SDS011;1961;48.194;16.370;2023-03-03T01:57:22;60.17;;;18.38;;
3891;SDS011;1961;48.194;16.370;2023-03-03T01:59:51;61.00;;;19.02;;
3891;SDS011;1961;48.194;16.370;2023-03-03T02:02:18;64.45;;;20.02;;
3891;SDS011;1961;48.194;16.370;2023-03-03T02:04:44;62.78;;;19.83;;
3891;SDS011;1961;48.194;16.370;2023-03-03T02:07:11;61.35;;;18.80;;
3891;SDS011;1961;48.194;16.370;2023-03-03T02:12:18;62.80;;;20.75;;
3891;SDS011;1961;48.194;16.370;2023-03-03T02:14:47;60.85;;;18.85;;
3891;SDS011;1961;48.194;16.370;2023-03-03T02:17:13;63.92;;;20.00;;
3891;SDS011;1961;48.194;16.370;2023-03-03T02:22:10;60.75;;;18.13;;
3891;SDS011;1961;48.194;16.370;2023-03-03T02:27:05;60.08;;;17.80;;
3891;SDS011;1961;48.194;16.370;2023-03-03T02:29:32;62.65;;;19.73;;
3891;SDS011;1961;48.194;16.370;2023-03-03T02:31:58;58.47;;;17.88;;
3891;SDS011;1961;48.194;16.370;2023-03-03T02:34:24;62.17;;;20.33;;
3891;SDS011;1961;48.194;16.370;2023-03-03T02:36:50;60.28;;;18.90;;
3891;SDS011;1961;48.194;16.370;2023-03-03T02:39:23;62.58;;;20.02;;
3891;SDS011;1961;48.194;16.370;2023-03-03T02:44:35;63.05;;;19.00;;
3891;SDS011;1961;48.194;16.370;2023-03-03T02:47:02;63.35;;;18.58;;
3891;SDS011;1961;48.194;16.370;2023-03-03T02:49:29;61.53;;;19.05;;
3891;SDS011;1961;48.194;16.370;2023-03-03T02:51:56;67.78;;;22.08;;
3891;SDS011;1961;48.194;16.370;2023-03-03T02:54:23;61.25;;;19.13;;
3891;SDS011;1961;48.194;16.370;2023-03-03T02:56:50;65.10;;;21.77;;
3891;SDS011;1961;48.194;16.370;2023-03-03T02:59:17;73.00;;;22.17;;
3891;SDS011;1961;48.194;16.370;2023-03-03T03:01:43;64.85;;;20.23;;
3891;SDS011;1961;48.194;16.370;2023-03-03T03:04:11;75.00;;;26.02;;
3891;SDS011;1961;48.194;16.370;2023-03-03T03:06:39;77.82;;;29.17;;
3891;SDS011;1961;48.194;16.370;2023-03-03T03:09:08;85.38;;;31.55;;
3891;SDS011;1961;48.194;16.370;2023-03-03T03:11:35;84.57;;;29.48;;
3891;SDS011;1961;48.194;16.370;2023-03-03T03:14:02;84.80;;;29.58;;
3891;SDS011;1961;48.194;16.370;2023-03-03T03:16:28;86.68;;;30.50;;
3891;SDS011;1961;48.194;16.370;2023-03-03T03:18:56;82.70;;;29.73;;
3891;SDS011;1961;48.194;16.370;2023-03-03T03:21:22;97.43;;;32.95;;
3891;SDS011;1961;48.194;16.370;2023-03-03T03:23:48;83.85;;;29.20;;
3891;SDS011;1961;48.194;16.370;2023-03-03T03:26:14;68.85;;;23.73;;
3891;SDS011;1961;48.194;16.370;2023-03-03T03:28:41;66.80;;;21.90;;
3891;SDS011;1961;48.194;16.370;2023-03-03T03:31:07;68.63;;;22.90;;
3891;SDS011;1961;48.194;16.370;2023-03-03T03:33:34;66.95;;;21.85;;
3891;SDS011;1961;48.194;16.370;2023-03-03T03:36:01;71.40;;;20.60;;
3891;SDS011;1961;48.194;16.370;2023-03-03T03:38:29;63.95;;;19.00;;
3891;SDS011;1961;48.194;16.370;2023-03-03T03:40:55;65.18;;;20.63;;
3891;SDS011;1961;48.194;16.370;2023-03-03T03:43:22;64.07;;;21.42;;
3891;SDS011;1961;48.194;16.370;2023-03-03T03:45:48;59.85;;;18.83;;
3891;SDS011;1961;48.194;16.370;2023-03-03T03:48:14;64.95;;;19.13;;
3891;SDS011;1961;48.194;16.370;2023-03-03T03:50:41;62.80;;;19.90;;
3891;SDS011;1961;48.194;16.370;2023-03-03T03:53:08;61.33;;;19.42;;
3891;SDS011;1961;48.194;16.370;2023-03-03T03:55:34;59.90;;;18.88;;
3891;SDS011;1961;48.194;16.370;2023-03-03T03:58:00;59.20;;;18.92;;
3891;SDS011;1961;48.194;16.370;2023-03-03T04:00:26;62.15;;;18.92;;
3891;SDS011;1961;48.194;16.370;2023-03-03T04:02:53;65.78;;;17.90;;
3891;SDS011;1961;48.194;16.370;2023-03-03T04:05:19;60.22;;;18.58;;
3891;SDS011;1961;48.194;16.370;2023-03-03T04:07:45;63.65;;;20.23;;
3891;SDS011;1961;48.194;16.370;2023-03-03T04:10:11;69.18;;;20.63;;
3891;SDS011;1961;48.194;16.370;2023-03-03T04:12:38;61.10;;;19.02;;
3891;SDS011;1961;48.194;16.370;2023-03-03T04:15:08;60.42;;;17.90;;
3891;SDS011;1961;48.194;16.370;2023-03-03T04:17:34;60.85;;;19.45;;
3891;SDS011;1961;48.194;16.370;2023-03-03T04:20:01;68.00;;;20.23;;
3891;SDS011;1961;48.194;16.370;2023-03-03T04:22:27;64.15;;;19.45;;
3891;SDS011;1961;48.194;16.370;2023-03-03T04:25:01;62.30;;;19.23;;
3891;SDS011;1961;48.194;16.370;2023-03-03T04:27:32;60.85;;;17.52;;
3891;SDS011;1961;48.194;16.370;2023-03-03T04:29:59;61.60;;;18.02;;
3891;SDS011;1961;48.194;16.370;2023-03-03T04:32:25;56.30;;;18.80;;
3891;SDS011;1961;48.194;16.370;2023-03-03T04:34:52;65.40;;;20.05;;
3891;SDS011;1961;48.194;16.370;2023-03-03T04:37:21;59.22;;;17.15;;
3891;SDS011;1961;48.194;16.370;2023-03-03T04:39:47;59.28;;;17.70;;
3891;SDS011;1961;48.194;16.370;2023-03-03T04:42:13;61.10;;;18.17;;
3891;SDS011;1961;48.194;16.370;2023-03-03T04:44:40;60.38;;;17.95;;
3891;SDS011;1961;48.194;16.370;2023-03-03T04:47:06;61.83;;;17.50;;
3891;SDS011;1961;48.194;16.370;2023-03-03T04:49:32;64.95;;;16.95;;
3891;SDS011;1961;48.194;16.370;2023-03-03T04:51:58;59.42;;;17.40;;
3891;SDS011;1961;48.194;16.370;2023-03-03T04:54:24;65.00;;;18.02;;
3891;SDS011;1961;48.194;16.370;2023-03-03T04:56:51;57.15;;;17.23;;
3891;SDS011;1961;48.194;16.370;2023-03-03T04:59:17;63.67;;;17.85;;
3891;SDS011;1961;48.194;16.370;2023-03-03T05:01:43;62.90;;;18.15;;
3891;SDS011;1961;48.194;16.370;2023-03-03T05:04:10;63.83;;;19.63;;
3891;SDS011;1961;48.194;16.370;2023-03-03T05:06:36;57.22;;;16.10;;
3891;SDS011;1961;48.194;16.370;2023-03-03T05:09:03;61.05;;;18.17;;
3891;SDS011;1961;48.194;16.370;2023-03-03T05:11:29;63.40;;;19.30;;
3891;SDS011;1961;48.194;16.370;2023-03-03T05:13:56;63.88;;;17.70;;
3891;SDS011;1961;48.194;16.370;2023-03-03T05:16:22;60.67;;;18.88;;
3891;SDS011;1961;48.194;16.370;2023-03-03T05:18:49;61.83;;;17.35;;
3891;SDS011;1961;48.194;16.370;2023-03-03T05:21:15;64.43;;;18.58;;
3891;SDS011;1961;48.194;16.370;2023-03-03T05:23:42;61.55;;;18.25;;
3891;SDS011;1961;48.194;16.370;2023-03-03T05:26:08;56.30;;;16.88;;
3891;SDS011;1961;48.194;16.370;2023-03-03T05:28:35;61.15;;;17.52;;
3891;SDS011;1961;48.194;16.370;2023-03-03T05:31:01;62.63;;;18.95;;
3891;SDS011;1961;48.194;16.370;2023-03-03T05:33:27;64.32;;;18.27;;
3891;SDS011;1961;48.194;16.370;2023-03-03T05:35:54;65.25;;;19.75;;
3891;SDS011;1961;48.194;16.370;2023-03-03T05:38:21;64.90;;;19.90;;
3891;SDS011;1961;48.194;16.370;2023-03-03T05:40:47;67.88;;;20.30;;
3891;SDS011;1961;48.194;16.370;2023-03-03T05:43:13;65.82;;;21.50;;
3891;SDS011;1961;48.194;16.370;2023-03-03T05:45:39;71.90;;;22.98;;
3891;SDS011;1961;48.194;16.370;2023-03-03T05:48:05;74.47;;;24.77;;
3891;SDS011;1961;48.194;16.370;2023-03-03T05:50:32;76.93;;;23.13;;
3891;SDS011;1961;48.194;16.370;2023-03-03T05:52:58;80.25;;;28.27;;
3891;SDS011;1961;48.194;16.370;2023-03-03T05:55:24;81.32;;;27.60;;
3891;SDS011;1961;48.194;16.370;2023-03-03T05:57:50;80.18;;;26.10;;
3891;SDS011;1961;48.194;16.370;2023-03-03T06:00:17;85.65;;;27.80;;
3891;SDS011;1961;48.194;16.370;2023-03-03T06:02:43;80.05;;;27.70;;
3891;SDS011;1961;48.194;16.370;2023-03-03T06:05:09;81.22;;;29.42;;
3891;SDS011;1961;48.194;16.370;2023-03-03T06:07:36;75.90;;;27.88;;
3891;SDS011;1961;48.194;16.370;2023-03-03T06:10:02;76.30;;;27.83;;
3891;SDS011;1961;48.194;16.370;2023-03-03T06:12:29;83.85;;;30.48;;
3891;SDS011;1961;48.194;16.370;2023-03-03T06:14:55;85.97;;;28.98;;
3891;SDS011;1961;48.194;16.370;2023-03-03T06:17:21;89.32;;;32.38;;
3891;SDS011;1961;48.194;16.370;2023-03-03T06:19:47;87.15;;;32.05;;
3891;SDS011;1961;48.194;16.370;2023-03-03T06:22:13;82.93;;;29.92;;
3891;SDS011;1961;48.194;16.370;2023-03-03T06:24:40;89.00;;;31.70;;
3891;SDS011;1961;48.194;16.370;2023-03-03T06:27:06;85.47;;;31.55;;
3891;SDS011;1961;48.194;16.370;2023-03-03T06:29:32;84.05;;;31.33;;
3891;SDS011;1961;48.194;16.370;2023-03-03T06:31:58;88.88;;;30.77;;
3891;SDS011;1961;48.194;16.370;2023-03-03T06:34:24;87.90;;;30.15;;
3891;SDS011;1961;48.194;16.370;2023-03-03T06:36:51;86.32;;;32.35;;
3891;SDS011;1961;48.194;16.370;2023-03-03T06:39:17;86.47;;;35.85;;
3891;SDS011;1961;48.194;16.370;2023-03-03T06:41:43;102.78;;;36.30;;
3891;SDS011;1961;48.194;16.370;2023-03-03T06:44:09;92.80;;;36.30;;
3891;SDS011;1961;48.194;16.370;2023-03-03T06:46:36;100.25;;;39.75;;
3891;SDS011;1961;48.194;16.370;2023-03-03T06:49:02;100.13;;;37.67;;
3891;SDS011;1961;48.194;16.370;2023-03-03T06:51:35;97.90;;;39.42;;
3891;SDS011;1961;48.194;16.370;2023-03-03T06:54:26;96.40;;;38.63;;
3891;SDS011;1961;48.194;16.370;2023-03-03T06:56:54;105.90;;;40.90;;
3891;SDS011;1961;48.194;16.370;2023-03-03T06:59:22;100.70;;;39.08;;
3891;SDS011;1961;48.194;16.370;2023-03-03T07:01:49;101.72;;;39.00;;
3891;SDS011;1961;48.194;16.370;2023-03-03T07:06:52;101.43;;;40.00;;
3891;SDS011;1961;48.194;16.370;2023-03-03T07:09:23;106.10;;;40.92;;
3891;SDS011;1961;48.194;16.370;2023-03-03T07:11:50;104.75;;;40.78;;
3891;SDS011;1961;48.194;16.370;2023-03-03T07:14:18;104.82;;;38.28;;
3891;SDS011;1961;48.194;16.370;2023-03-03T07:16:45;106.10;;;38.90;;
3891;SDS011;1961;48.194;16.370;2023-03-03T07:19:22;109.72;;;43.30;;
3891;SDS011;1961;48.194;16.370;2023-03-03T07:21:50;103.57;;;40.90;;
3891;SDS011;1961;48.194;16.370;2023-03-03T07:24:27;97.28;;;36.50;;
3891;SDS011;1961;48.194;16.370;2023-03-03T07:26:56;111.05;;;41.45;;
3891;SDS011;1961;48.194;16.370;2023-03-03T07:29:28;97.13;;;39.42;;
3891;SDS011;1961;48.194;16.370;2023-03-03T07:31:58;104.97;;;41.13;;
3891;SDS011;1961;48.194;16.370;2023-03-03T07:34:29;99.95;;;40.78;;
3891;SDS011;1961;48.194;16.370;2023-03-03T07:37:02;100.43;;;40.22;;
3891;SDS011;1961;48.194;16.370;2023-03-03T07:39:33;99.93;;;42.45;;
3891;SDS011;1961;48.194;16.370;2023-03-03T07:42:33;101.90;;;39.47;;
3891;SDS011;1961;48.194;16.370;2023-03-03T07:44:53;103.85;;;38.50;;
3891;SDS011;1961;48.194;16.370;2023-03-03T07:49:50;99.05;;;39.40;;
3891;SDS011;1961;48.194;16.370;2023-03-03T07:52:19;95.20;;;38.58;;
3891;SDS011;1961;48.194;16.370;2023-03-03T07:54:49;100.70;;;38.08;;
3891;SDS011;1961;48.194;16.370;2023-03-03T07:57:22;98.28;;;38.72;;
3891;SDS011;1961;48.194;16.370;2023-03-03T08:04:48;93.28;;;37.40;;
3891;SDS011;1961;48.194;16.370;2023-03-03T08:07:17;100.15;;;38.17;;
3891;SDS011;1961;48.194;16.370;2023-03-03T08:09:51;97.22;;;38.50;;
3891;SDS011;1961;48.194;16.370;2023-03-03T08:12:26;93.60;;;37.78;;
3891;SDS011;1961;48.194;16.370;2023-03-03T08:14:54;109.15;;;42.22;;
3891;SDS011;1961;48.194;16.370;2023-03-03T08:17:22;93.88;;;35.08;;
3891;SDS011;1961;48.194;16.370;2023-03-03T08:19:50;88.45;;;33.60;;
3891;SDS011;1961;48.194;16.370;2023-03-03T08:22:18;89.30;;;35.00;;
3891;SDS011;1961;48.194;16.370;2023-03-03T08:24:48;93.95;;;35.83;;
3891;SDS011;1961;48.194;16.370;2023-03-03T08:27:15;90.25;;;36.20;;
3891;SDS011;1961;48.194;16.370;2023-03-03T08:29:41;91.15;;;36.72;;
3891;SDS011;1961;48.194;16.370;2023-03-03T08:32:08;87.38;;;37.28;;
3891;SDS011;1961;48.194;16.370;2023-03-03T08:34:34;93.05;;;36.30;;
3891;SDS011;1961;48.194;16.370;2023-03-03T08:37:00;89.78;;;34.75;;
3891;SDS011;1961;48.194;16.370;2023-03-03T08:39:26;98.20;;;36.65;;
3891;SDS011;1961;48.194;16.370;2023-03-03T08:41:53;90.60;;;33.63;;
3891;SDS011;1961;48.194;16.370;2023-03-03T08:44:19;93.93;;;34.47;;
3891;SDS011;1961;48.194;16.370;2023-03-03T08:46:45;85.90;;;34.83;;
3891;SDS011;1961;48.194;16.370;2023-03-03T08:49:11;85.35;;;34.05;;
3891;SDS011;1961;48.194;16.370;2023-03-03T08:51:37;90.05;;;35.40;;
3891;SDS011;1961;48.194;16.370;2023-03-03T08:54:04;88.45;;;34.72;;
3891;SDS011;1961;48.194;16.370;2023-03-03T08:56:31;91.47;;;35.72;;
3891;SDS011;1961;48.194;16.370;2023-03-03T08:58:57;89.05;;;31.88;;
3891;SDS011;1961;48.194;16.370;2023-03-03T09:01:23;87.03;;;34.22;;
3891;SDS011;1961;48.194;16.370;2023-03-03T09:03:49;86.80;;;33.40;;
3891;SDS011;1961;48.194;16.370;2023-03-03T09:06:15;92.05;;;34.00;;
3891;SDS011;1961;48.194;16.370;2023-03-03T09:08:41;89.65;;;33.53;;
3891;SDS011;1961;48.194;16.370;2023-03-03T09:11:14;90.32;;;36.15;;
3891;SDS011;1961;48.194;16.370;2023-03-03T09:13:44;93.60;;;36.22;;
3891;SDS011;1961;48.194;16.370;2023-03-03T09:16:13;92.35;;;37.67;;
3891;SDS011;1961;48.194;16.370;2023-03-03T09:18:40;86.35;;;33.08;;
3891;SDS011;1961;48.194;16.370;2023-03-03T09:21:20;90.38;;;34.85;;
3891;SDS011;1961;48.194;16.370;2023-03-03T09:23:48;86.15;;;34.20;;
3891;SDS011;1961;48.194;16.370;2023-03-03T09:26:26;83.63;;;32.65;;
3891;SDS011;1961;48.194;16.370;2023-03-03T09:28:55;81.30;;;31.33;;
3891;SDS011;1961;48.194;16.370;2023-03-03T09:31:25;88.15;;;32.75;;
3891;SDS011;1961;48.194;16.370;2023-03-03T09:33:51;84.60;;;30.67;;
3891;SDS011;1961;48.194;16.370;2023-03-03T09:36:39;81.93;;;31.95;;
3891;SDS011;1961;48.194;16.370;2023-03-03T09:39:16;87.68;;;33.22;;
3891;SDS011;1961;48.194;16.370;2023-03-03T09:44:25;83.03;;;31.63;;
3891;SDS011;1961;48.194;16.370;2023-03-03T09:51:56;85.82;;;32.55;;
3891;SDS011;1961;48.194;16.370;2023-03-03T09:57:12;84.38;;;31.73;;
3891;SDS011;1961;48.194;16.370;2023-03-03T09:59:46;98.07;;;34.13;;
3891;SDS011;1961;48.194;16.370;2023-03-03T10:10:02;80.03;;;30.13;;
3891;SDS011;1961;48.194;16.370;2023-03-03T10:15:02;81.88;;;32.13;;
3891;SDS011;1961;48.194;16.370;2023-03-03T10:28:01;87.40;;;31.05;;
3891;SDS011;1961;48.194;16.370;2023-03-03T10:30:42;75.57;;;29.40;;
3891;SDS011;1961;48.194;16.370;2023-03-03T10:33:35;83.72;;;28.85;;
3891;SDS011;1961;48.194;16.370;2023-03-03T10:38:59;81.28;;;30.05;;
3891;SDS011;1961;48.194;16.370;2023-03-03T11:09:30;77.53;;;27.80;;
3891;SDS011;1961;48.194;16.370;2023-03-03T11:22:46;76.18;;;26.00;;
3891;SDS011;1961;48.194;16.370;2023-03-03T11:33:01;83.00;;;29.70;;
3891;SDS011;1961;48.194;16.370;2023-03-03T11:35:35;79.28;;;29.23;;
3891;SDS011;1961;48.194;16.370;2023-03-03T11:38:17;75.70;;;27.40;;
3891;SDS011;1961;48.194;16.370;2023-03-03T11:40:50;73.00;;;27.58;;
3891;SDS011;1961;48.194;16.370;2023-03-03T11:43:26;76.65;;;28.05;;
3891;SDS011;1961;48.194;16.370;2023-03-03T11:45:54;75.47;;;27.00;;
3891;SDS011;1961;48.194;16.370;2023-03-03T11:50:58;75.28;;;25.23;;
3891;SDS011;1961;48.194;16.370;2023-03-03T11:59:33;71.60;;;25.35;;
3891;SDS011;1961;48.194;16.370;2023-03-03T12:01:35;74.00;;;25.60;;
3891;SDS011;1961;48.194;16.370;2023-03-03T12:04:09;70.63;;;24.75;;
3891;SDS011;1961;48.194;16.370;2023-03-03T12:11:46;69.13;;;23.70;;
3891;SDS011;1961;48.194;16.370;2023-03-03T12:19:12;77.13;;;27.33;;
3891;SDS011;1961;48.194;16.370;2023-03-03T12:34:23;76.97;;;26.80;;
3891;SDS011;1961;48.194;16.370;2023-03-03T12:37:07;71.17;;;26.33;;
3891;SDS011;1961;48.194;16.370;2023-03-03T12:39:38;71.10;;;24.33;;
3891;SDS011;1961;48.194;16.370;2023-03-03T12:47:32;71.63;;;26.30;;
3891;SDS011;1961;48.194;16.370;2023-03-03T13:01:13;71.28;;;26.60;;
3891;SDS011;1961;48.194;16.370;2023-03-03T13:06:22;73.93;;;25.20;;
3891;SDS011;1961;48.194;16.370;2023-03-03T13:11:23;72.70;;;24.50;;
3891;SDS011;1961;48.194;16.370;2023-03-03T13:13:59;74.03;;;25.65;;
3891;SDS011;1961;48.194;16.370;2023-03-03T13:16:30;71.40;;;25.88;;
3891;SDS011;1961;48.194;16.370;2023-03-03T13:21:35;74.47;;;27.23;;
3891;SDS011;1961;48.194;16.370;2023-03-03T13:24:06;72.47;;;24.57;;
3891;SDS011;1961;48.194;16.370;2023-03-03T13:26:59;71.95;;;24.95;;
3891;SDS011;1961;48.194;16.370;2023-03-03T13:29:31;70.05;;;24.33;;
3891;SDS011;1961;48.194;16.370;2023-03-03T13:32:00;71.00;;;25.03;;
3891;SDS011;1961;48.194;16.370;2023-03-03T13:39:47;72.53;;;26.47;;
3891;SDS011;1961;48.194;16.370;2023-03-03T13:42:22;75.67;;;26.30;;
3891;SDS011;1961;48.194;16.370;2023-03-03T13:44:52;67.83;;;24.87;;
3891;SDS011;1961;48.194;16.370;2023-03-03T13:47:25;68.67;;;23.97;;
3891;SDS011;1961;48.194;16.370;2023-03-03T13:50:03;67.10;;;24.73;;
3891;SDS011;1961;48.194;16.370;2023-03-03T13:52:33;71.10;;;25.17;;
3891;SDS011;1961;48.194;16.370;2023-03-03T13:57:54;74.77;;;24.97;;
3891;SDS011;1961;48.194;16.370;2023-03-03T14:03:10;73.77;;;26.00;;
3891;SDS011;1961;48.194;16.370;2023-03-03T14:05:49;69.53;;;24.30;;
3891;SDS011;1961;48.194;16.370;2023-03-03T14:08:30;69.50;;;24.60;;
3891;SDS011;1961;48.194;16.370;2023-03-03T14:13:43;72.60;;;24.77;;
3891;SDS011;1961;48.194;16.370;2023-03-03T14:18:53;74.33;;;25.00;;
3891;SDS011;1961;48.194;16.370;2023-03-03T14:21:27;68.37;;;24.43;;
3891;SDS011;1961;48.194;16.370;2023-03-03T14:24:04;69.97;;;25.10;;
3891;SDS011;1961;48.194;16.370;2023-03-03T14:26:44;66.93;;;24.07;;
3891;SDS011;1961;48.194;16.370;2023-03-03T14:29:18;70.77;;;22.83;;
3891;SDS011;1961;48.194;16.370;2023-03-03T14:31:45;70.53;;;22.40;;
3891;SDS011;1961;48.194;16.370;2023-03-03T14:36:51;68.67;;;22.97;;
3891;SDS011;1961;48.194;16.370;2023-03-03T14:41:49;67.83;;;24.80;;
3891;SDS011;1961;48.194;16.370;2023-03-03T14:44:20;74.27;;;23.90;;
3891;SDS011;1961;48.194;16.370;2023-03-03T14:49:51;73.33;;;22.33;;
3891;SDS011;1961;48.194;16.370;2023-03-03T14:52:26;69.57;;;23.27;;
3891;SDS011;1961;48.194;16.370;2023-03-03T14:54:53;68.60;;;22.43;;
3891;SDS011;1961;48.194;16.370;2023-03-03T14:57:21;67.07;;;22.40;;
3891;SDS011;1961;48.194;16.370;2023-03-03T15:02:25;68.05;;;22.77;;
3891;SDS011;1961;48.194;16.370;2023-03-03T15:05:07;66.15;;;20.35;;
3891;SDS011;1961;48.194;16.370;2023-03-03T15:07:37;65.43;;;21.20;;
3891;SDS011;1961;48.194;16.370;2023-03-03T15:10:07;64.57;;;20.00;;
3891;SDS011;1961;48.194;16.370;2023-03-03T15:12:35;61.10;;;20.30;;
3891;SDS011;1961;48.194;16.370;2023-03-03T15:17:35;62.37;;;18.37;;
3891;SDS011;1961;48.194;16.370;2023-03-03T15:27:49;59.20;;;18.07;;
3891;SDS011;1961;48.194;16.370;2023-03-03T15:30:21;59.23;;;17.20;;
3891;SDS011;1961;48.194;16.370;2023-03-03T15:35:29;61.55;;;16.63;;
3891;SDS011;1961;48.194;16.370;2023-03-03T15:38:02;55.87;;;16.93;;
3891;SDS011;1961;48.194;16.370;2023-03-03T15:43:03;62.40;;;16.27;;
3891;SDS011;1961;48.194;16.370;2023-03-03T15:45:38;62.43;;;19.37;;
3891;SDS011;1961;48.194;16.370;2023-03-03T15:48:14;60.30;;;16.63;;
3891;SDS011;1961;48.194;16.370;2023-03-03T15:50:48;57.30;;;15.60;;
3891;SDS011;1961;48.194;16.370;2023-03-03T16:01:06;59.83;;;17.77;;
3891;SDS011;1961;48.194;16.370;2023-03-03T16:03:51;61.20;;;16.40;;
3891;SDS011;1961;48.194;16.370;2023-03-03T16:08:57;60.33;;;17.90;;
3891;SDS011;1961;48.194;16.370;2023-03-03T16:11:44;59.50;;;17.75;;
3891;SDS011;1961;48.194;16.370;2023-03-03T16:14:46;59.80;;;18.93;;
3891;SDS011;1961;48.194;16.370;2023-03-03T16:17:14;82.68;;;27.08;;
3891;SDS011;1961;48.194;16.370;2023-03-03T16:25:35;58.37;;;18.70;;
3891;SDS011;1961;48.194;16.370;2023-03-03T16:30:25;61.97;;;20.33;;
3891;SDS011;1961;48.194;16.370;2023-03-03T16:33:01;61.43;;;19.93;;
3891;SDS011;1961;48.194;16.370;2023-03-03T16:35:33;62.03;;;21.30;;
3891;SDS011;1961;48.194;16.370;2023-03-03T16:38:06;76.53;;;23.93;;
3891;SDS011;1961;48.194;16.370;2023-03-03T16:45:45;68.90;;;25.25;;
3891;SDS011;1961;48.194;16.370;2023-03-03T17:01:26;65.50;;;20.80;;
3891;SDS011;1961;48.194;16.370;2023-03-03T17:04:00;72.22;;;22.42;;
3891;SDS011;1961;48.194;16.370;2023-03-03T17:12:20;71.20;;;23.47;;
3891;SDS011;1961;48.194;16.370;2023-03-03T17:17:41;72.18;;;22.20;;
3891;SDS011;1961;48.194;16.370;2023-03-03T17:25:28;67.03;;;20.67;;
3891;SDS011;1961;48.194;16.370;2023-03-03T17:38:57;61.73;;;19.30;;
3891;SDS011;1961;48.194;16.370;2023-03-03T17:41:30;67.43;;;21.15;;
3891;SDS011;1961;48.194;16.370;2023-03-03T17:44:00;63.33;;;19.37;;
3891;SDS011;1961;48.194;16.370;2023-03-03T17:49:03;62.47;;;21.20;;
3891;SDS011;1961;48.194;16.370;2023-03-03T17:51:43;63.33;;;19.30;;
3891;SDS011;1961;48.194;16.370;2023-03-03T17:54:35;59.53;;;18.02;;
3891;SDS011;1961;48.194;16.370;2023-03-03T17:57:16;59.28;;;19.20;;
3891;SDS011;1961;48.194;16.370;2023-03-03T17:59:50;57.90;;;18.65;;
3891;SDS011;1961;48.194;16.370;2023-03-03T18:02:28;61.17;;;19.08;;
3891;SDS011;1961;48.194;16.370;2023-03-03T18:08:00;62.63;;;19.67;;
3891;SDS011;1961;48.194;16.370;2023-03-03T18:15:59;58.33;;;18.30;;
3891;SDS011;1961;48.194;16.370;2023-03-03T18:21:48;60.38;;;18.98;;
3891;SDS011;1961;48.194;16.370;2023-03-03T18:24:52;62.88;;;18.30;;
3891;SDS011;1961;48.194;16.370;2023-03-03T18:26:41;58.03;;;17.33;;
3891;SDS011;1961;48.194;16.370;2023-03-03T18:29:09;63.50;;;19.77;;
3891;SDS011;1961;48.194;16.370;2023-03-03T18:36:54;66.82;;;20.90;;
3891;SDS011;1961;48.194;16.370;2023-03-03T18:44:41;70.63;;;22.02;;
3891;SDS011;1961;48.194;16.370;2023-03-03T18:47:08;64.45;;;20.20;;
3891;SDS011;1961;48.194;16.370;2023-03-03T18:52:24;66.55;;;22.15;;
3891;SDS011;1961;48.194;16.370;2023-03-03T18:55:01;74.53;;;23.63;;
3891;SDS011;1961;48.194;16.370;2023-03-03T18:57:28;69.68;;;23.33;;
3891;SDS011;1961;48.194;16.370;2023-03-03T18:59:56;75.00;;;24.90;;
3891;SDS011;1961;48.194;16.370;2023-03-03T19:02:28;73.18;;;23.50;;
3891;SDS011;1961;48.194;16.370;2023-03-03T19:20:25;73.72;;;24.75;;
3891;SDS011;1961;48.194;16.370;2023-03-03T19:23:04;74.70;;;26.17;;
3891;SDS011;1961;48.194;16.370;2023-03-03T19:25:32;76.32;;;26.25;;
3891;SDS011;1961;48.194;16.370;2023-03-03T19:33:18;78.90;;;27.77;;
3891;SDS011;1961;48.194;16.370;2023-03-03T19:38:20;74.45;;;25.33;;
3891;SDS011;1961;48.194;16.370;2023-03-03T20:09:31;79.35;;;26.92;;
3891;SDS011;1961;48.194;16.370;2023-03-03T20:17:23;76.30;;;26.83;;
3891;SDS011;1961;48.194;16.370;2023-03-03T20:27:59;79.38;;;26.20;;
3891;SDS011;1961;48.194;16.370;2023-03-03T20:30:40;74.53;;;26.73;;
3891;SDS011;1961;48.194;16.370;2023-03-03T20:35:49;77.95;;;26.08;;
3891;SDS011;1961;48.194;16.370;2023-03-03T20:38:34;74.70;;;24.92;;
3891;SDS011;1961;48.194;16.370;2023-03-03T20:43:54;76.53;;;25.42;;
3891;SDS011;1961;48.194;16.370;2023-03-03T20:49:10;72.93;;;24.20;;
3891;SDS011;1961;48.194;16.370;2023-03-03T20:51:45;74.10;;;23.90;;
3891;SDS011;1961;48.194;16.370;2023-03-03T20:56:41;73.03;;;23.23;;
3891;SDS011;1961;48.194;16.370;2023-03-03T21:02:04;71.15;;;23.83;;